sensor_id;sensor_type;location;lat;lon;timestamp;P1;durP1;ratioP1;P2;durP2;ratioP2
1691;SDS011;843;52.054;8.552;2023-07-31T00:01:32;1.90;;;1.53;;
1691;SDS011;843;52.054;8.552;2023-07-31T00:03:58;2.23;;;1.47;;
1691;SDS011;843;52.054;8.552;2023-07-31T00:06:26;2.70;;;1.43;;
1691;SDS011;843;52.054;8.552;2023-07-31T00:08:53;1.33;;;1.17;;
1691;SDS011;843;52.054;8.552;2023-07-31T00:11:19;2.50;;;1.30;;
1691;SDS011;843;52.054;8.552;2023-07-31T00:13:45;1.10;;;1.00;;
1691;SDS011;843;52.054;8.552;2023-07-31T00:16:12;2.57;;;1.67;;
1691;SDS011;843;52.054;8.552;2023-07-31T00:18:38;2.30;;;1.67;;
1691;SDS011;843;52.054;8.552;2023-07-31T00:21:05;1.60;;;1.50;;
1691;SDS011;843;52.054;8.552;2023-07-31T00:23:32;1.93;;;1.83;;
1691;SDS011;843;52.054;8.552;2023-07-31T00:25:59;2.30;;;1.80;;
1691;SDS011;843;52.054;8.552;2023-07-31T00:28:25;3.10;;;2.10;;
1691;SDS011;843;52.054;8.552;2023-07-31T00:30:52;2.27;;;1.90;;
1691;SDS011;843;52.054;8.552;2023-07-31T00:33:18;2.83;;;2.30;;
1691;SDS011;843;52.054;8.552;2023-07-31T00:35:45;2.80;;;2.50;;
1691;SDS011;843;52.054;8.552;2023-07-31T00:38:11;2.77;;;2.57;;
1691;SDS011;843;52.054;8.552;2023-07-31T00:40:39;2.97;;;2.67;;
1691;SDS011;843;52.054;8.552;2023-07-31T00:43:05;2.70;;;2.50;;
1691;SDS011;843;52.054;8.552;2023-07-31T00:45:32;3.10;;;2.80;;
1691;SDS011;843;52.054;8.552;2023-07-31T00:47:58;4.00;;;2.90;;
1691;SDS011;843;52.054;8.552;2023-07-31T00:50:25;3.50;;;3.00;;
1691;SDS011;843;52.054;8.552;2023-07-31T00:52:51;3.30;;;2.70;;
1691;SDS011;843;52.054;8.552;2023-07-31T00:55:18;3.00;;;2.70;;
1691;SDS011;843;52.054;8.552;2023-07-31T00:57:46;3.30;;;3.00;;
1691;SDS011;843;52.054;8.552;2023-07-31T01:00:12;4.20;;;3.10;;
1691;SDS011;843;52.054;8.552;2023-07-31T01:02:38;3.10;;;2.80;;
1691;SDS011;843;52.054;8.552;2023-07-31T01:05:05;3.03;;;2.83;;
1691;SDS011;843;52.054;8.552;2023-07-31T01:07:40;3.43;;;3.13;;
1691;SDS011;843;52.054;8.552;2023-07-31T01:10:09;3.10;;;2.87;;
1691;SDS011;843;52.054;8.552;2023-07-31T01:12:37;3.30;;;3.10;;
1691;SDS011;843;52.054;8.552;2023-07-31T01:15:06;3.50;;;3.20;;
1691;SDS011;843;52.054;8.552;2023-07-31T01:17:35;5.30;;;3.13;;
1691;SDS011;843;52.054;8.552;2023-07-31T01:20:02;3.20;;;3.00;;
1691;SDS011;843;52.054;8.552;2023-07-31T01:22:33;5.17;;;3.90;;
1691;SDS011;843;52.054;8.552;2023-07-31T01:25:05;3.93;;;3.00;;
1691;SDS011;843;52.054;8.552;2023-07-31T01:27:38;4.73;;;3.20;;
1691;SDS011;843;52.054;8.552;2023-07-31T01:30:08;3.37;;;3.07;;
1691;SDS011;843;52.054;8.552;2023-07-31T01:32:39;3.30;;;3.00;;
1691;SDS011;843;52.054;8.552;2023-07-31T01:35:06;3.03;;;2.77;;
1691;SDS011;843;52.054;8.552;2023-07-31T01:37:33;2.93;;;2.67;;
1691;SDS011;843;52.054;8.552;2023-07-31T01:39:59;3.23;;;2.80;;
1691;SDS011;843;52.054;8.552;2023-07-31T01:42:26;4.73;;;3.20;;
1691;SDS011;843;52.054;8.552;2023-07-31T01:44:53;3.90;;;3.10;;
1691;SDS011;843;52.054;8.552;2023-07-31T01:47:20;2.47;;;2.10;;
1691;SDS011;843;52.054;8.552;2023-07-31T01:49:46;3.37;;;2.73;;
1691;SDS011;843;52.054;8.552;2023-07-31T01:52:13;3.10;;;2.30;;
1691;SDS011;843;52.054;8.552;2023-07-31T01:54:39;2.80;;;2.23;;
1691;SDS011;843;52.054;8.552;2023-07-31T01:57:06;2.97;;;2.47;;
1691;SDS011;843;52.054;8.552;2023-07-31T01:59:32;3.00;;;1.70;;
1691;SDS011;843;52.054;8.552;2023-07-31T02:02:00;2.60;;;2.17;;
1691;SDS011;843;52.054;8.552;2023-07-31T02:04:26;2.30;;;2.03;;
1691;SDS011;843;52.054;8.552;2023-07-31T02:06:53;3.60;;;2.27;;
1691;SDS011;843;52.054;8.552;2023-07-31T02:09:19;2.67;;;2.23;;
1691;SDS011;843;52.054;8.552;2023-07-31T02:11:45;3.03;;;1.60;;
1691;SDS011;843;52.054;8.552;2023-07-31T02:14:12;1.93;;;1.50;;
1691;SDS011;843;52.054;8.552;2023-07-31T02:16:38;2.70;;;2.10;;
1691;SDS011;843;52.054;8.552;2023-07-31T02:19:06;2.30;;;1.60;;
1691;SDS011;843;52.054;8.552;2023-07-31T02:21:32;1.93;;;1.60;;
1691;SDS011;843;52.054;8.552;2023-07-31T02:23:59;2.47;;;1.80;;
1691;SDS011;843;52.054;8.552;2023-07-31T02:26:25;2.50;;;1.70;;
1691;SDS011;843;52.054;8.552;2023-07-31T02:28:51;2.90;;;1.37;;
1691;SDS011;843;52.054;8.552;2023-07-31T02:31:18;1.70;;;1.43;;
1691;SDS011;843;52.054;8.552;2023-07-31T02:33:44;2.20;;;1.00;;
1691;SDS011;843;52.054;8.552;2023-07-31T02:36:12;1.57;;;1.10;;
1691;SDS011;843;52.054;8.552;2023-07-31T02:38:39;1.60;;;1.30;;
1691;SDS011;843;52.054;8.552;2023-07-31T02:41:06;1.70;;;0.97;;
1691;SDS011;843;52.054;8.552;2023-07-31T02:43:32;1.57;;;1.20;;
1691;SDS011;843;52.054;8.552;2023-07-31T02:45:59;1.30;;;1.00;;
1691;SDS011;843;52.054;8.552;2023-07-31T02:48:25;2.40;;;1.37;;
1691;SDS011;843;52.054;8.552;2023-07-31T02:50:52;1.70;;;1.07;;
1691;SDS011;843;52.054;8.552;2023-07-31T02:53:19;1.60;;;1.20;;
1691;SDS011;843;52.054;8.552;2023-07-31T02:55:47;1.43;;;1.20;;
1691;SDS011;843;52.054;8.552;2023-07-31T02:58:13;1.87;;;1.00;;
1691;SDS011;843;52.054;8.552;2023-07-31T03:00:41;1.20;;;1.10;;
1691;SDS011;843;52.054;8.552;2023-07-31T03:03:08;1.70;;;0.90;;
1691;SDS011;843;52.054;8.552;2023-07-31T03:05:34;1.27;;;0.90;;
1691;SDS011;843;52.054;8.552;2023-07-31T03:08:01;1.23;;;0.70;;
1691;SDS011;843;52.054;8.552;2023-07-31T03:10:28;1.00;;;0.87;;
1691;SDS011;843;52.054;8.552;2023-07-31T03:12:55;1.53;;;1.10;;
1691;SDS011;843;52.054;8.552;2023-07-31T03:15:21;1.57;;;1.17;;
1691;SDS011;843;52.054;8.552;2023-07-31T03:17:47;1.40;;;1.30;;
1691;SDS011;843;52.054;8.552;2023-07-31T03:20:14;2.00;;;1.80;;
1691;SDS011;843;52.054;8.552;2023-07-31T03:22:40;5.30;;;3.50;;
1691;SDS011;843;52.054;8.552;2023-07-31T03:25:07;5.33;;;3.43;;
1691;SDS011;843;52.054;8.552;2023-07-31T03:27:36;5.27;;;4.77;;
1691;SDS011;843;52.054;8.552;2023-07-31T03:30:02;6.47;;;5.80;;
1691;SDS011;843;52.054;8.552;2023-07-31T03:32:29;8.20;;;7.40;;
1691;SDS011;843;52.054;8.552;2023-07-31T03:34:55;11.47;;;10.37;;
1691;SDS011;843;52.054;8.552;2023-07-31T03:37:22;15.30;;;9.83;;
1691;SDS011;843;52.054;8.552;2023-07-31T03:39:48;13.53;;;11.17;;
1691;SDS011;843;52.054;8.552;2023-07-31T03:42:14;14.17;;;11.60;;
1691;SDS011;843;52.054;8.552;2023-07-31T03:44:42;15.83;;;12.73;;
1691;SDS011;843;52.054;8.552;2023-07-31T03:47:08;15.20;;;12.53;;
1691;SDS011;843;52.054;8.552;2023-07-31T03:49:35;17.37;;;13.27;;
1691;SDS011;843;52.054;8.552;2023-07-31T03:52:01;16.70;;;13.60;;
1691;SDS011;843;52.054;8.552;2023-07-31T03:54:28;16.47;;;14.10;;
1691;SDS011;843;52.054;8.552;2023-07-31T03:56:54;19.23;;;14.50;;
1691;SDS011;843;52.054;8.552;2023-07-31T03:59:20;26.13;;;15.83;;
1691;SDS011;843;52.054;8.552;2023-07-31T04:01:48;24.60;;;14.40;;
1691;SDS011;843;52.054;8.552;2023-07-31T04:04:14;22.40;;;15.27;;
1691;SDS011;843;52.054;8.552;2023-07-31T04:06:41;18.90;;;15.60;;
1691;SDS011;843;52.054;8.552;2023-07-31T04:09:07;23.00;;;16.20;;
1691;SDS011;843;52.054;8.552;2023-07-31T04:11:34;19.13;;;15.67;;
1691;SDS011;843;52.054;8.552;2023-07-31T04:14:00;22.50;;;15.40;;
1691;SDS011;843;52.054;8.552;2023-07-31T04:16:26;20.73;;;15.83;;
1691;SDS011;843;52.054;8.552;2023-07-31T04:18:54;27.80;;;16.60;;
1691;SDS011;843;52.054;8.552;2023-07-31T04:21:20;22.50;;;17.13;;
1691;SDS011;843;52.054;8.552;2023-07-31T04:23:47;20.10;;;16.20;;
1691;SDS011;843;52.054;8.552;2023-07-31T04:26:13;24.40;;;17.20;;
1691;SDS011;843;52.054;8.552;2023-07-31T04:28:39;19.47;;;15.47;;
1691;SDS011;843;52.054;8.552;2023-07-31T04:31:06;23.00;;;15.30;;
1691;SDS011;843;52.054;8.552;2023-07-31T04:33:32;19.77;;;15.33;;
1691;SDS011;843;52.054;8.552;2023-07-31T04:36:00;20.13;;;15.47;;
1691;SDS011;843;52.054;8.552;2023-07-31T04:38:26;24.93;;;16.80;;
1691;SDS011;843;52.054;8.552;2023-07-31T04:40:53;20.63;;;17.30;;
1691;SDS011;843;52.054;8.552;2023-07-31T04:43:19;22.80;;;16.40;;
1691;SDS011;843;52.054;8.552;2023-07-31T04:45:45;22.27;;;16.53;;
1691;SDS011;843;52.054;8.552;2023-07-31T04:48:13;22.30;;;16.27;;
1691;SDS011;843;52.054;8.552;2023-07-31T04:50:39;24.60;;;16.80;;
1691;SDS011;843;52.054;8.552;2023-07-31T04:53:07;18.20;;;15.73;;
1691;SDS011;843;52.054;8.552;2023-07-31T04:55:33;23.73;;;17.27;;
1691;SDS011;843;52.054;8.552;2023-07-31T04:57:59;21.07;;;15.37;;
1691;SDS011;843;52.054;8.552;2023-07-31T05:00:26;21.50;;;14.47;;
1691;SDS011;843;52.054;8.552;2023-07-31T05:02:52;22.30;;;14.33;;
1691;SDS011;843;52.054;8.552;2023-07-31T05:05:19;19.17;;;13.73;;
1691;SDS011;843;52.054;8.552;2023-07-31T05:07:45;19.97;;;12.50;;
1691;SDS011;843;52.054;8.552;2023-07-31T05:10:13;18.63;;;13.13;;
1691;SDS011;843;52.054;8.552;2023-07-31T05:12:39;21.97;;;13.80;;
1691;SDS011;843;52.054;8.552;2023-07-31T05:15:06;24.50;;;11.90;;
1691;SDS011;843;52.054;8.552;2023-07-31T05:17:32;20.17;;;12.20;;
1691;SDS011;843;52.054;8.552;2023-07-31T05:19:58;17.33;;;11.60;;
1691;SDS011;843;52.054;8.552;2023-07-31T05:22:25;19.47;;;11.83;;
1691;SDS011;843;52.054;8.552;2023-07-31T05:24:51;19.77;;;11.10;;
1691;SDS011;843;52.054;8.552;2023-07-31T05:27:20;15.27;;;11.03;;
1691;SDS011;843;52.054;8.552;2023-07-31T05:29:46;16.80;;;9.90;;
1691;SDS011;843;52.054;8.552;2023-07-31T05:32:13;18.63;;;10.20;;
1691;SDS011;843;52.054;8.552;2023-07-31T05:34:39;17.20;;;9.93;;
1691;SDS011;843;52.054;8.552;2023-07-31T05:37:05;16.20;;;9.40;;
1691;SDS011;843;52.054;8.552;2023-07-31T05:39:32;20.63;;;9.27;;
1691;SDS011;843;52.054;8.552;2023-07-31T05:41:58;21.80;;;9.00;;
1691;SDS011;843;52.054;8.552;2023-07-31T05:44:26;15.20;;;8.70;;
1691;SDS011;843;52.054;8.552;2023-07-31T05:46:52;15.13;;;8.90;;
1691;SDS011;843;52.054;8.552;2023-07-31T05:49:19;19.43;;;8.63;;
1691;SDS011;843;52.054;8.552;2023-07-31T05:51:45;14.60;;;8.27;;
1691;SDS011;843;52.054;8.552;2023-07-31T05:54:11;16.10;;;7.40;;
1691;SDS011;843;52.054;8.552;2023-07-31T05:56:38;12.93;;;8.07;;
1691;SDS011;843;52.054;8.552;2023-07-31T05:59:04;15.73;;;8.40;;
1691;SDS011;843;52.054;8.552;2023-07-31T06:01:32;17.47;;;8.27;;
1691;SDS011;843;52.054;8.552;2023-07-31T06:03:58;15.70;;;7.70;;
1691;SDS011;843;52.054;8.552;2023-07-31T06:06:25;13.50;;;8.17;;
1691;SDS011;843;52.054;8.552;2023-07-31T06:08:51;16.30;;;7.87;;
1691;SDS011;843;52.054;8.552;2023-07-31T06:11:18;20.90;;;8.77;;
1691;SDS011;843;52.054;8.552;2023-07-31T06:13:45;17.20;;;7.77;;
1691;SDS011;843;52.054;8.552;2023-07-31T06:16:13;12.50;;;7.80;;
1691;SDS011;843;52.054;8.552;2023-07-31T06:18:40;18.80;;;7.60;;
1691;SDS011;843;52.054;8.552;2023-07-31T06:21:07;13.43;;;8.67;;
1691;SDS011;843;52.054;8.552;2023-07-31T06:23:33;13.37;;;7.00;;
1691;SDS011;843;52.054;8.552;2023-07-31T06:26:00;19.90;;;8.50;;
1691;SDS011;843;52.054;8.552;2023-07-31T06:28:27;18.30;;;8.23;;
1691;SDS011;843;52.054;8.552;2023-07-31T06:30:54;20.20;;;8.17;;
1691;SDS011;843;52.054;8.552;2023-07-31T06:33:20;16.87;;;8.43;;
1691;SDS011;843;52.054;8.552;2023-07-31T06:35:48;17.67;;;7.83;;
1691;SDS011;843;52.054;8.552;2023-07-31T06:38:14;20.00;;;7.83;;
1691;SDS011;843;52.054;8.552;2023-07-31T06:40:41;22.60;;;8.77;;
1691;SDS011;843;52.054;8.552;2023-07-31T06:43:07;13.30;;;7.63;;
1691;SDS011;843;52.054;8.552;2023-07-31T06:45:33;16.67;;;6.60;;
1691;SDS011;843;52.054;8.552;2023-07-31T06:48:00;12.77;;;7.60;;
1691;SDS011;843;52.054;8.552;2023-07-31T06:50:27;14.80;;;6.63;;
1691;SDS011;843;52.054;8.552;2023-07-31T06:52:55;11.93;;;7.03;;
1691;SDS011;843;52.054;8.552;2023-07-31T06:55:21;11.73;;;6.30;;
1691;SDS011;843;52.054;8.552;2023-07-31T06:57:48;17.43;;;7.00;;
1691;SDS011;843;52.054;8.552;2023-07-31T07:00:15;9.43;;;5.97;;
1691;SDS011;843;52.054;8.552;2023-07-31T07:02:41;16.23;;;7.97;;
1691;SDS011;843;52.054;8.552;2023-07-31T07:05:08;13.97;;;6.70;;
1691;SDS011;843;52.054;8.552;2023-07-31T07:07:35;13.90;;;7.17;;
1691;SDS011;843;52.054;8.552;2023-07-31T07:10:03;16.40;;;6.53;;
1691;SDS011;843;52.054;8.552;2023-07-31T07:12:30;11.00;;;6.93;;
1691;SDS011;843;52.054;8.552;2023-07-31T07:14:57;14.13;;;7.20;;
1691;SDS011;843;52.054;8.552;2023-07-31T07:17:23;11.20;;;6.83;;
1691;SDS011;843;52.054;8.552;2023-07-31T07:19:50;12.60;;;8.07;;
1691;SDS011;843;52.054;8.552;2023-07-31T07:22:16;11.27;;;7.03;;
1691;SDS011;843;52.054;8.552;2023-07-31T07:24:43;11.83;;;7.70;;
1691;SDS011;843;52.054;8.552;2023-07-31T07:27:10;12.27;;;7.10;;
1691;SDS011;843;52.054;8.552;2023-07-31T07:29:37;11.87;;;7.47;;
1691;SDS011;843;52.054;8.552;2023-07-31T07:32:04;11.60;;;8.17;;
1691;SDS011;843;52.054;8.552;2023-07-31T07:34:31;11.40;;;7.60;;
1691;SDS011;843;52.054;8.552;2023-07-31T07:36:57;10.13;;;7.50;;
1691;SDS011;843;52.054;8.552;2023-07-31T07:39:23;17.53;;;7.50;;
1691;SDS011;843;52.054;8.552;2023-07-31T07:41:50;10.60;;;7.20;;
1691;SDS011;843;52.054;8.552;2023-07-31T07:44:19;11.47;;;7.37;;
1691;SDS011;843;52.054;8.552;2023-07-31T07:46:46;13.00;;;6.60;;
1691;SDS011;843;52.054;8.552;2023-07-31T07:49:12;14.63;;;8.83;;
1691;SDS011;843;52.054;8.552;2023-07-31T07:51:39;10.23;;;7.60;;
1691;SDS011;843;52.054;8.552;2023-07-31T07:54:05;15.07;;;8.47;;
1691;SDS011;843;52.054;8.552;2023-07-31T07:56:32;12.13;;;7.30;;
1691;SDS011;843;52.054;8.552;2023-07-31T07:59:01;15.77;;;7.90;;
1691;SDS011;843;52.054;8.552;2023-07-31T08:01:29;14.17;;;7.60;;
1691;SDS011;843;52.054;8.552;2023-07-31T08:03:55;10.07;;;6.70;;
1691;SDS011;843;52.054;8.552;2023-07-31T08:06:22;7.73;;;6.27;;
1691;SDS011;843;52.054;8.552;2023-07-31T08:08:48;10.23;;;6.90;;
1691;SDS011;843;52.054;8.552;2023-07-31T08:11:15;7.80;;;5.57;;
1691;SDS011;843;52.054;8.552;2023-07-31T08:13:41;4.83;;;4.27;;
1691;SDS011;843;52.054;8.552;2023-07-31T08:16:07;4.70;;;4.10;;
1691;SDS011;843;52.054;8.552;2023-07-31T08:18:36;6.23;;;4.63;;
1691;SDS011;843;52.054;8.552;2023-07-31T08:21:02;5.80;;;4.20;;
1691;SDS011;843;52.054;8.552;2023-07-31T08:23:29;5.57;;;3.70;;
1691;SDS011;843;52.054;8.552;2023-07-31T08:25:56;7.77;;;4.17;;
1691;SDS011;843;52.054;8.552;2023-07-31T08:28:22;6.00;;;4.00;;
1691;SDS011;843;52.054;8.552;2023-07-31T08:30:49;4.70;;;4.20;;
1691;SDS011;843;52.054;8.552;2023-07-31T08:33:15;6.53;;;4.10;;
1691;SDS011;843;52.054;8.552;2023-07-31T08:35:43;5.27;;;4.50;;
1691;SDS011;843;52.054;8.552;2023-07-31T08:38:10;8.67;;;5.23;;
1691;SDS011;843;52.054;8.552;2023-07-31T08:40:36;6.63;;;5.23;;
1691;SDS011;843;52.054;8.552;2023-07-31T08:43:03;6.30;;;5.40;;
1691;SDS011;843;52.054;8.552;2023-07-31T08:45:30;6.03;;;5.40;;
1691;SDS011;843;52.054;8.552;2023-07-31T08:47:57;6.17;;;4.80;;
1691;SDS011;843;52.054;8.552;2023-07-31T08:50:23;6.30;;;5.13;;
1691;SDS011;843;52.054;8.552;2023-07-31T08:52:51;5.77;;;5.17;;
1691;SDS011;843;52.054;8.552;2023-07-31T08:55:18;10.33;;;5.00;;
1691;SDS011;843;52.054;8.552;2023-07-31T08:57:48;6.57;;;5.67;;
1691;SDS011;843;52.054;8.552;2023-07-31T09:00:16;9.73;;;5.77;;
1691;SDS011;843;52.054;8.552;2023-07-31T09:02:45;11.33;;;5.90;;
1691;SDS011;843;52.054;8.552;2023-07-31T09:05:12;5.83;;;5.23;;
1691;SDS011;843;52.054;8.552;2023-07-31T09:07:38;5.70;;;5.10;;
1691;SDS011;843;52.054;8.552;2023-07-31T09:10:07;7.40;;;4.90;;
1691;SDS011;843;52.054;8.552;2023-07-31T09:12:33;7.50;;;5.03;;
1691;SDS011;843;52.054;8.552;2023-07-31T09:15:00;8.23;;;4.90;;
1691;SDS011;843;52.054;8.552;2023-07-31T09:17:30;7.50;;;5.57;;
1691;SDS011;843;52.054;8.552;2023-07-31T09:19:57;6.10;;;4.30;;
1691;SDS011;843;52.054;8.552;2023-07-31T09:22:31;6.00;;;5.20;;
1691;SDS011;843;52.054;8.552;2023-07-31T09:25:03;4.50;;;4.10;;
1691;SDS011;843;52.054;8.552;2023-07-31T09:27:35;4.33;;;3.93;;
1691;SDS011;843;52.054;8.552;2023-07-31T09:30:11;6.10;;;4.70;;
1691;SDS011;843;52.054;8.552;2023-07-31T09:32:42;7.53;;;4.80;;
1691;SDS011;843;52.054;8.552;2023-07-31T09:37:53;4.67;;;4.20;;
1691;SDS011;843;52.054;8.552;2023-07-31T09:40:27;5.90;;;4.33;;
1691;SDS011;843;52.054;8.552;2023-07-31T09:42:55;6.90;;;4.70;;
1691;SDS011;843;52.054;8.552;2023-07-31T09:45:22;6.03;;;4.23;;
1691;SDS011;843;52.054;8.552;2023-07-31T09:47:48;5.83;;;4.80;;
1691;SDS011;843;52.054;8.552;2023-07-31T09:50:15;4.67;;;4.17;;
1691;SDS011;843;52.054;8.552;2023-07-31T09:52:41;7.77;;;3.80;;
1691;SDS011;843;52.054;8.552;2023-07-31T09:55:08;4.53;;;4.00;;
1691;SDS011;843;52.054;8.552;2023-07-31T09:57:34;4.67;;;3.90;;
1691;SDS011;843;52.054;8.552;2023-07-31T10:00:04;5.23;;;3.60;;
1691;SDS011;843;52.054;8.552;2023-07-31T10:02:31;5.07;;;4.20;;
1691;SDS011;843;52.054;8.552;2023-07-31T10:04:58;8.10;;;4.63;;
1691;SDS011;843;52.054;8.552;2023-07-31T10:07:27;4.30;;;3.70;;
1691;SDS011;843;52.054;8.552;2023-07-31T10:09:55;4.80;;;3.70;;
1691;SDS011;843;52.054;8.552;2023-07-31T10:12:22;6.97;;;4.47;;
1691;SDS011;843;52.054;8.552;2023-07-31T10:14:51;4.57;;;3.73;;
1691;SDS011;843;52.054;8.552;2023-07-31T10:17:20;3.40;;;3.03;;
1691;SDS011;843;52.054;8.552;2023-07-31T10:19:47;3.00;;;2.30;;
1691;SDS011;843;52.054;8.552;2023-07-31T10:22:14;3.80;;;3.40;;
1691;SDS011;843;52.054;8.552;2023-07-31T10:24:41;4.10;;;3.30;;
1691;SDS011;843;52.054;8.552;2023-07-31T10:27:08;3.50;;;2.67;;
1691;SDS011;843;52.054;8.552;2023-07-31T10:29:35;4.23;;;3.20;;
1691;SDS011;843;52.054;8.552;2023-07-31T10:32:03;3.20;;;2.50;;
1691;SDS011;843;52.054;8.552;2023-07-31T10:34:34;4.50;;;2.73;;
1691;SDS011;843;52.054;8.552;2023-07-31T10:39:45;3.37;;;2.30;;
1691;SDS011;843;52.054;8.552;2023-07-31T10:42:20;2.73;;;1.70;;
1691;SDS011;843;52.054;8.552;2023-07-31T10:44:54;1.90;;;1.70;;
1691;SDS011;843;52.054;8.552;2023-07-31T10:47:21;2.20;;;2.00;;
1691;SDS011;843;52.054;8.552;2023-07-31T10:49:49;2.57;;;2.00;;
1691;SDS011;843;52.054;8.552;2023-07-31T10:52:19;2.00;;;1.80;;
1691;SDS011;843;52.054;8.552;2023-07-31T10:54:47;2.37;;;1.67;;
1691;SDS011;843;52.054;8.552;2023-07-31T10:57:20;2.20;;;1.90;;
1691;SDS011;843;52.054;8.552;2023-07-31T10:59:47;2.50;;;1.70;;
1691;SDS011;843;52.054;8.552;2023-07-31T11:02:23;2.40;;;2.20;;
1691;SDS011;843;52.054;8.552;2023-07-31T11:07:49;2.10;;;1.63;;
1691;SDS011;843;52.054;8.552;2023-07-31T11:10:18;2.37;;;1.90;;
1691;SDS011;843;52.054;8.552;2023-07-31T11:12:45;2.03;;;1.50;;
1691;SDS011;843;52.054;8.552;2023-07-31T11:15:11;1.80;;;1.70;;
1691;SDS011;843;52.054;8.552;2023-07-31T11:17:38;2.40;;;1.90;;
1691;SDS011;843;52.054;8.552;2023-07-31T11:20:05;1.67;;;1.57;;
1691;SDS011;843;52.054;8.552;2023-07-31T11:22:32;2.00;;;1.80;;
1691;SDS011;843;52.054;8.552;2023-07-31T11:25:00;2.33;;;2.00;;
1691;SDS011;843;52.054;8.552;2023-07-31T11:27:27;3.00;;;1.77;;
1691;SDS011;843;52.054;8.552;2023-07-31T11:29:59;2.60;;;1.90;;
1691;SDS011;843;52.054;8.552;2023-07-31T11:32:26;3.27;;;2.03;;
1691;SDS011;843;52.054;8.552;2023-07-31T11:34:52;1.97;;;1.77;;
1691;SDS011;843;52.054;8.552;2023-07-31T11:37:19;2.20;;;2.00;;
1691;SDS011;843;52.054;8.552;2023-07-31T11:39:57;2.70;;;1.80;;
1691;SDS011;843;52.054;8.552;2023-07-31T11:42:25;2.50;;;2.30;;
1691;SDS011;843;52.054;8.552;2023-07-31T11:44:52;2.50;;;1.90;;
1691;SDS011;843;52.054;8.552;2023-07-31T11:47:18;2.23;;;2.03;;
1691;SDS011;843;52.054;8.552;2023-07-31T11:49:45;1.93;;;1.73;;
1691;SDS011;843;52.054;8.552;2023-07-31T11:52:12;3.97;;;1.83;;
1691;SDS011;843;52.054;8.552;2023-07-31T11:54:39;1.70;;;1.60;;
1691;SDS011;843;52.054;8.552;2023-07-31T11:57:06;1.50;;;1.40;;
1691;SDS011;843;52.054;8.552;2023-07-31T11:59:34;2.07;;;1.70;;
1691;SDS011;843;52.054;8.552;2023-07-31T12:02:01;1.70;;;1.43;;
1691;SDS011;843;52.054;8.552;2023-07-31T12:04:27;1.93;;;1.77;;
1691;SDS011;843;52.054;8.552;2023-07-31T12:06:54;1.70;;;1.43;;
1691;SDS011;843;52.054;8.552;2023-07-31T12:09:20;1.90;;;1.37;;
1691;SDS011;843;52.054;8.552;2023-07-31T12:11:47;1.80;;;1.60;;
1691;SDS011;843;52.054;8.552;2023-07-31T12:14:20;2.40;;;1.90;;
1691;SDS011;843;52.054;8.552;2023-07-31T12:16:49;1.77;;;1.60;;
1691;SDS011;843;52.054;8.552;2023-07-31T12:19:18;2.63;;;1.67;;
1691;SDS011;843;52.054;8.552;2023-07-31T12:21:45;1.30;;;1.20;;
1691;SDS011;843;52.054;8.552;2023-07-31T12:24:11;1.97;;;1.63;;
1691;SDS011;843;52.054;8.552;2023-07-31T12:26:38;1.17;;;1.07;;
1691;SDS011;843;52.054;8.552;2023-07-31T12:29:05;3.30;;;1.43;;
1691;SDS011;843;52.054;8.552;2023-07-31T12:31:33;2.03;;;1.40;;
1691;SDS011;843;52.054;8.552;2023-07-31T12:34:01;1.20;;;1.07;;
1691;SDS011;843;52.054;8.552;2023-07-31T12:36:28;1.40;;;1.30;;
1691;SDS011;843;52.054;8.552;2023-07-31T12:38:55;1.53;;;1.37;;
1691;SDS011;843;52.054;8.552;2023-07-31T12:41:23;2.27;;;1.40;;
1691;SDS011;843;52.054;8.552;2023-07-31T12:43:50;1.73;;;1.63;;
1691;SDS011;843;52.054;8.552;2023-07-31T12:46:16;2.17;;;1.60;;
1691;SDS011;843;52.054;8.552;2023-07-31T12:48:43;2.07;;;1.60;;
1691;SDS011;843;52.054;8.552;2023-07-31T12:51:11;1.87;;;1.77;;
1691;SDS011;843;52.054;8.552;2023-07-31T12:53:37;2.00;;;1.80;;
1691;SDS011;843;52.054;8.552;2023-07-31T12:56:04;4.00;;;2.57;;
1691;SDS011;843;52.054;8.552;2023-07-31T12:58:30;3.80;;;2.90;;
1691;SDS011;843;52.054;8.552;2023-07-31T13:00:57;3.80;;;3.47;;
1691;SDS011;843;52.054;8.552;2023-07-31T13:03:23;5.07;;;3.73;;
1691;SDS011;843;52.054;8.552;2023-07-31T13:05:50;5.57;;;4.40;;
1691;SDS011;843;52.054;8.552;2023-07-31T13:08:18;5.83;;;5.23;;
1691;SDS011;843;52.054;8.552;2023-07-31T13:10:45;6.30;;;5.80;;
1691;SDS011;843;52.054;8.552;2023-07-31T13:13:11;8.47;;;6.07;;
1691;SDS011;843;52.054;8.552;2023-07-31T13:15:38;8.30;;;6.37;;
1691;SDS011;843;52.054;8.552;2023-07-31T13:18:04;6.80;;;6.10;;
1691;SDS011;843;52.054;8.552;2023-07-31T13:20:30;6.13;;;5.53;;
1691;SDS011;843;52.054;8.552;2023-07-31T13:22:57;6.73;;;5.30;;
1691;SDS011;843;52.054;8.552;2023-07-31T13:25:25;7.17;;;5.90;;
1691;SDS011;843;52.054;8.552;2023-07-31T13:27:51;5.47;;;5.03;;
1691;SDS011;843;52.054;8.552;2023-07-31T13:30:18;5.27;;;4.50;;
1691;SDS011;843;52.054;8.552;2023-07-31T13:32:44;5.13;;;4.63;;
1691;SDS011;843;52.054;8.552;2023-07-31T13:35:10;4.90;;;4.23;;
1691;SDS011;843;52.054;8.552;2023-07-31T13:37:37;4.10;;;3.80;;
1691;SDS011;843;52.054;8.552;2023-07-31T13:40:04;4.90;;;4.40;;
1691;SDS011;843;52.054;8.552;2023-07-31T13:42:32;4.97;;;4.17;;
1691;SDS011;843;52.054;8.552;2023-07-31T13:44:58;5.60;;;4.57;;
1691;SDS011;843;52.054;8.552;2023-07-31T13:47:25;7.33;;;5.10;;
1691;SDS011;843;52.054;8.552;2023-07-31T13:49:51;4.70;;;4.30;;
1691;SDS011;843;52.054;8.552;2023-07-31T13:52:18;4.10;;;3.70;;
1691;SDS011;843;52.054;8.552;2023-07-31T13:54:44;4.63;;;3.90;;
1691;SDS011;843;52.054;8.552;2023-07-31T13:57:11;5.10;;;4.60;;
1691;SDS011;843;52.054;8.552;2023-07-31T13:59:38;4.20;;;3.80;;
1691;SDS011;843;52.054;8.552;2023-07-31T14:02:05;4.70;;;4.30;;
1691;SDS011;843;52.054;8.552;2023-07-31T14:04:31;7.03;;;5.00;;
1691;SDS011;843;52.054;8.552;2023-07-31T14:06:58;7.63;;;5.00;;
1691;SDS011;843;52.054;8.552;2023-07-31T14:09:25;5.17;;;4.60;;
1691;SDS011;843;52.054;8.552;2023-07-31T14:11:51;5.67;;;4.53;;
1691;SDS011;843;52.054;8.552;2023-07-31T14:14:18;5.33;;;4.83;;
1691;SDS011;843;52.054;8.552;2023-07-31T14:16:46;7.17;;;4.90;;
1691;SDS011;843;52.054;8.552;2023-07-31T14:19:12;4.93;;;4.43;;
1691;SDS011;843;52.054;8.552;2023-07-31T14:21:39;5.57;;;5.00;;
1691;SDS011;843;52.054;8.552;2023-07-31T14:24:05;4.47;;;4.10;;
1691;SDS011;843;52.054;8.552;2023-07-31T14:26:32;5.07;;;4.63;;
1691;SDS011;843;52.054;8.552;2023-07-31T14:28:58;5.33;;;4.83;;
1691;SDS011;843;52.054;8.552;2023-07-31T14:31:24;6.20;;;4.90;;
1691;SDS011;843;52.054;8.552;2023-07-31T14:33:52;4.80;;;4.00;;
1691;SDS011;843;52.054;8.552;2023-07-31T14:36:18;4.50;;;4.10;;
1691;SDS011;843;52.054;8.552;2023-07-31T14:38:45;6.53;;;4.40;;
1691;SDS011;843;52.054;8.552;2023-07-31T14:41:11;5.70;;;5.10;;
1691;SDS011;843;52.054;8.552;2023-07-31T14:43:38;5.17;;;4.60;;
1691;SDS011;843;52.054;8.552;2023-07-31T14:46:04;5.30;;;4.77;;
1691;SDS011;843;52.054;8.552;2023-07-31T14:48:31;5.50;;;5.03;;
1691;SDS011;843;52.054;8.552;2023-07-31T14:50:59;5.90;;;5.40;;
1691;SDS011;843;52.054;8.552;2023-07-31T14:53:26;4.93;;;4.50;;
1691;SDS011;843;52.054;8.552;2023-07-31T14:55:52;6.17;;;5.33;;
1691;SDS011;843;52.054;8.552;2023-07-31T14:58:18;6.30;;;5.67;;
1691;SDS011;843;52.054;8.552;2023-07-31T15:00:45;6.37;;;5.87;;
1691;SDS011;843;52.054;8.552;2023-07-31T15:03:11;5.97;;;4.40;;
1691;SDS011;843;52.054;8.552;2023-07-31T15:05:38;4.87;;;4.40;;
1691;SDS011;843;52.054;8.552;2023-07-31T15:08:05;4.87;;;4.37;;
1691;SDS011;843;52.054;8.552;2023-07-31T15:10:32;4.00;;;3.57;;
1691;SDS011;843;52.054;8.552;2023-07-31T15:12:58;5.27;;;3.73;;
1691;SDS011;843;52.054;8.552;2023-07-31T15:15:26;4.90;;;3.80;;
1691;SDS011;843;52.054;8.552;2023-07-31T15:17:52;3.70;;;2.93;;
1691;SDS011;843;52.054;8.552;2023-07-31T15:20:20;3.60;;;3.30;;
1691;SDS011;843;52.054;8.552;2023-07-31T15:22:46;3.60;;;2.87;;
1691;SDS011;843;52.054;8.552;2023-07-31T15:27:50;3.37;;;3.07;;
1691;SDS011;843;52.054;8.552;2023-07-31T15:30:16;5.43;;;3.40;;
1691;SDS011;843;52.054;8.552;2023-07-31T15:32:42;3.10;;;2.80;;
1691;SDS011;843;52.054;8.552;2023-07-31T15:35:13;4.43;;;3.20;;